Time,TemperatureF,DewpointF,PressureIn,WindDirection,WindDirectionDegrees,WindSpeedMPH,WindSpeedGustMPH,Humidity,HourlyPrecipIn,Conditions,Clouds,dailyrainin,SoftwareType,DateUTC
2013-01-09 00:00:00,29.3,18.6,30.15,South,180,0.0,0.0,64,0.00,,,0.00,VWS V14.01,2013-01-09 05:00:00,
2013-01-09 00:01:00,29.1,18.5,30.15,SSE,158,0.0,0.0,64,0.00,,,0.00,VWS V14.01,2013-01-09 05:01:00,
2013-01-09 00:03:00,29.1,18.5,30.15,South,180,0.0,3.6,64,0.00,,,0.00,VWS V14.01,2013-01-09 05:03:00,
2013-01-09 00:08:00,28.8,17.8,30.15,South,180,0.0,4.5,63,0.00,,,0.00,VWS V14.01,2013-01-09 05:08:00,
2013-01-09 00:13:00,28.9,17.9,30.15,South,180,0.0,4.5,63,0.00,,,0.00,VWS V14.01,2013-01-09 05:13:00,
2013-01-09 00:18:00,28.9,18.3,30.15,South,180,0.0,4.5,64,0.00,,,0.00,VWS V14.01,2013-01-09 05:18:00,
2013-01-09 00:23:00,28.9,18.3,30.15,South,180,0.0,0.0,64,0.00,,,0.00,VWS V14.01,2013-01-09 05:23:00,
2013-01-09 00:28:00,28.9,18.3,30.14,South,180,0.0,0.0,64,0.00,,,0.00,VWS V14.01,2013-01-09 05:28:00,
2013-01-09 00:33:00,29.1,18.8,30.15,SSW,202,0.0,0.0,65,0.00,,,0.00,VWS V14.01,2013-01-09 05:33:00,
2013-01-09 00:38:00,29.1,18.8,30.15,South,180,0.0,3.1,65,0.00,,,0.00,VWS V14.01,2013-01-09 05:38:00,
2013-01-09 00:43:00,29.1,18.8,30.14,SSW,202,0.0,0.0,65,0.00,,,0.00,VWS V14.01,2013-01-09 05:43:00,
2013-01-09 00:48:00,29.1,18.8,30.14,SSW,202,0.0,5.4,65,0.00,,,0.00,VWS V14.01,2013-01-09 05:48:00,
2013-01-09 00:53:00,29.1,18.8,30.14,SW,225,0.0,5.4,65,0.00,,,0.00,VWS V14.01,2013-01-09 05:53:00,
2013-01-09 00:58:00,29.1,18.8,30.14,South,180,0.0,5.4,65,0.00,,,0.00,VWS V14.01,2013-01-09 05:58:00,
2013-01-09 01:03:00,29.1,19.2,30.14,SSW,202,0.0,1.8,66,0.00,,,0.00,VWS V14.01,2013-01-09 06:03:00,
2013-01-09 01:08:00,29.3,19.4,30.13,SW,225,0.0,5.4,66,0.00,,,0.00,VWS V14.01,2013-01-09 06:08:00,
2013-01-09 01:14:00,29.1,19.2,30.13,SW,225,0.0,5.4,66,0.00,,,0.00,VWS V14.01,2013-01-09 06:14:00,
2013-01-09 01:19:00,29.3,19.4,30.12,SW,225,0.0,5.4,66,0.00,,,0.00,VWS V14.01,2013-01-09 06:19:00,
2013-01-09 01:24:00,29.3,19.4,30.12,SSW,202,0.0,0.0,66,0.00,,,0.00,VWS V14.01,2013-01-09 06:24:00,
2013-01-09 01:29:00,29.3,19.4,30.12,SSW,202,0.0,0.0,66,0.00,,,0.00,VWS V14.01,2013-01-09 06:29:00,
2013-01-09 01:34:00,29.3,19.7,30.12,SSE,158,0.0,2.0,67,0.00,,,0.00,VWS V14.01,2013-01-09 06:34:00,
2013-01-09 01:39:00,29.1,19.5,30.12,SW,225,0.0,2.0,67,0.00,,,0.00,VWS V14.01,2013-01-09 06:39:00,
2013-01-09 01:44:00,29.1,19.5,30.11,SSW,202,0.0,3.1,67,0.00,,,0.00,VWS V14.01,2013-01-09 06:44:00,
2013-01-09 01:49:00,29.1,19.5,30.11,SW,225,0.0,3.1,67,0.00,,,0.00,VWS V14.01,2013-01-09 06:49:00,
2013-01-09 01:54:00,29.1,19.5,30.11,SSW,202,0.0,3.1,67,0.00,,,0.00,VWS V14.01,2013-01-09 06:54:00,
2013-01-09 01:59:00,29.1,19.5,30.10,South,180,0.0,3.1,67,0.00,,,0.00,VWS V14.01,2013-01-09 06:59:00,
2013-01-09 02:04:00,28.9,19.4,30.10,South,180,0.0,5.8,67,0.00,,,0.00,VWS V14.01,2013-01-09 07:04:00,
2013-01-09 02:09:00,28.9,19.4,30.09,South,180,0.0,5.8,67,0.00,,,0.00,VWS V14.01,2013-01-09 07:09:00,
2013-01-09 02:14:00,28.9,19.4,30.09,SSE,158,0.0,5.8,67,0.00,,,0.00,VWS V14.01,2013-01-09 07:14:00,
2013-01-09 02:19:00,28.9,19.4,30.09,SSW,202,0.0,5.8,67,0.00,,,0.00,VWS V14.01,2013-01-09 07:19:00,
2013-01-09 02:24:00,28.9,19.4,30.10,SSW,202,0.0,0.0,67,0.00,,,0.00,VWS V14.01,2013-01-09 07:24:00,
2013-01-09 02:29:00,29.1,19.5,30.10,South,180,0.0,0.0,67,0.00,,,0.00,VWS V14.01,2013-01-09 07:29:00,
2013-01-09 02:34:00,29.1,19.9,30.10,South,180,0.0,0.0,68,0.00,,,0.00,VWS V14.01,2013-01-09 07:34:00,
2013-01-09 02:39:00,29.3,20.1,30.10,SW,225,0.0,0.0,68,0.00,,,0.00,VWS V14.01,2013-01-09 07:39:00,
2013-01-09 02:44:00,29.3,20.1,30.10,SSW,202,0.0,2.0,68,0.00,,,0.00,VWS V14.01,2013-01-09 07:44:00,
2013-01-09 02:49:00,29.3,20.1,30.09,SSE,158,0.0,3.8,68,0.00,,,0.00,VWS V14.01,2013-01-09 07:49:00,
2013-01-09 02:54:00,29.3,20.1,30.09,South,180,0.0,4.7,68,0.00,,,0.00,VWS V14.01,2013-01-09 07:54:00,
2013-01-09 03:00:00,29.3,20.1,30.09,SSW,202,0.0,4.7,68,0.00,,,0.00,VWS V14.01,2013-01-09 08:00:00,
2013-01-09 03:05:00,29.3,20.1,30.09,SSW,202,0.0,4.5,68,0.00,,,0.00,VWS V14.01,2013-01-09 08:05:00,
2013-01-09 03:10:00,29.3,20.1,30.09,SW,225,0.0,4.5,68,0.00,,,0.00,VWS V14.01,2013-01-09 08:10:00,
2013-01-09 03:15:00,29.3,20.4,30.09,SW,225,0.0,4.5,69,0.00,,,0.00,VWS V14.01,2013-01-09 08:15:00,
2013-01-09 03:20:00,29.3,20.4,30.09,SSW,202,0.0,4.5,69,0.00,,,0.00,VWS V14.01,2013-01-09 08:20:00,
2013-01-09 03:25:00,29.3,20.4,30.09,WSW,248,0.0,0.0,69,0.00,,,0.00,VWS V14.01,2013-01-09 08:25:00,
2013-01-09 03:30:00,29.3,20.4,30.08,SSW,202,0.0,2.0,69,0.00,,,0.00,VWS V14.01,2013-01-09 08:30:00,
2013-01-09 03:35:00,29.3,20.4,30.09,South,180,2.7,2.7,69,0.00,,,0.00,VWS V14.01,2013-01-09 08:35:00,
2013-01-09 03:40:00,29.1,20.2,30.09,SSW,202,0.0,5.8,69,0.00,,,0.00,VWS V14.01,2013-01-09 08:40:00,
2013-01-09 03:45:00,29.1,20.2,30.09,SSW,202,0.0,2.9,69,0.00,,,0.00,VWS V14.01,2013-01-09 08:45:00,
2013-01-09 03:50:00,29.1,20.2,30.09,SW,225,0.0,11.2,69,0.00,,,0.00,VWS V14.01,2013-01-09 08:50:00,
2013-01-09 03:55:00,29.3,20.4,30.09,SW,225,0.0,11.2,69,0.00,,,0.00,VWS V14.01,2013-01-09 08:55:00,
2013-01-09 04:00:00,29.3,20.4,30.09,WSW,248,3.4,11.2,69,0.00,,,0.00,VWS V14.01,2013-01-09 09:00:00,
2013-01-09 04:05:00,29.7,21.1,30.09,SW,225,0.0,6.0,70,0.00,,,0.00,VWS V14.01,2013-01-09 09:05:00,
2013-01-09 04:10:00,30.0,21.4,30.09,SW,225,2.0,6.5,70,0.00,,,0.00,VWS V14.01,2013-01-09 09:10:00,
2013-01-09 04:15:00,30.4,21.8,30.08,WSW,248,0.0,6.5,70,0.00,,,0.00,VWS V14.01,2013-01-09 09:15:00,
2013-01-09 04:21:00,30.7,22.5,30.08,SW,225,0.0,0.0,71,0.00,,,0.00,VWS V14.01,2013-01-09 09:21:00,
2013-01-09 04:26:00,30.9,22.6,30.07,WSW,248,0.0,9.0,71,0.00,,,0.00,VWS V14.01,2013-01-09 09:26:00,
2013-01-09 04:31:00,30.9,22.6,30.06,WSW,248,0.0,9.0,71,0.00,,,0.00,VWS V14.01,2013-01-09 09:31:00,
2013-01-09 04:36:00,30.9,22.6,30.06,SSW,202,0.0,9.0,71,0.00,,,0.00,VWS V14.01,2013-01-09 09:36:00,
2013-01-09 04:41:00,30.9,22.6,30.05,South,180,0.0,3.6,71,0.00,,,0.00,VWS V14.01,2013-01-09 09:41:00,
2013-01-09 04:46:00,31.1,22.8,30.04,SSW,202,1.1,4.9,71,0.00,,,0.00,VWS V14.01,2013-01-09 09:46:00,
2013-01-09 04:51:00,31.5,23.2,30.03,West,270,0.0,4.9,71,0.00,,,0.00,VWS V14.01,2013-01-09 09:51:00,
2013-01-09 04:56:00,31.5,23.2,30.03,SSW,202,0.0,4.9,71,0.00,,,0.00,VWS V14.01,2013-01-09 09:56:00,
2013-01-09 05:01:00,31.6,23.7,30.03,SSW,202,8.1,8.1,72,0.00,,,0.00,VWS V14.01,2013-01-09 10:01:00,
2013-01-09 05:06:00,32.2,24.2,30.04,SW,225,0.0,8.1,72,0.00,,,0.00,VWS V14.01,2013-01-09 10:06:00,
2013-01-09 05:11:00,32.4,24.4,30.04,WSW,248,0.9,8.1,72,0.00,,,0.00,VWS V14.01,2013-01-09 10:11:00,
2013-01-09 05:16:00,32.5,24.5,30.04,SW,225,0.0,8.1,72,0.00,,,0.00,VWS V14.01,2013-01-09 10:16:00,
2013-01-09 05:21:00,32.7,24.7,30.03,SE,135,0.0,4.3,72,0.00,,,0.00,VWS V14.01,2013-01-09 10:21:00,
2013-01-09 05:26:00,32.7,24.7,30.03,SSW,202,0.0,6.7,72,0.00,,,0.00,VWS V14.01,2013-01-09 10:26:00,
2013-01-09 05:31:00,32.9,24.9,30.03,WSW,248,4.7,7.6,72,0.00,,,0.00,VWS V14.01,2013-01-09 10:31:00,
2013-01-09 05:36:00,32.9,24.9,30.03,WSW,248,3.6,7.6,72,0.00,,,0.00,VWS V14.01,2013-01-09 10:36:00,
2013-01-09 05:42:00,33.1,25.0,30.03,SW,225,8.5,12.8,72,0.00,,,0.00,VWS V14.01,2013-01-09 10:42:00,
2013-01-09 05:47:00,33.3,25.2,30.04,SW,225,0.0,12.8,72,0.00,,,0.00,VWS V14.01,2013-01-09 10:47:00,
2013-01-09 05:52:00,33.3,25.2,30.04,SW,225,6.5,12.8,72,0.00,,,0.00,VWS V14.01,2013-01-09 10:52:00,
2013-01-09 05:57:00,33.3,25.2,30.04,West,270,0.0,12.8,72,0.00,,,0.00,VWS V14.01,2013-01-09 10:57:00,
2013-01-09 06:02:00,33.3,25.2,30.05,WSW,248,1.6,5.8,72,0.00,,,0.00,VWS V14.01,2013-01-09 11:02:00,
2013-01-09 06:07:00,33.4,25.4,30.04,WNW,292,0.0,10.3,72,0.00,,,0.00,VWS V14.01,2013-01-09 11:07:00,
2013-01-09 06:12:00,33.4,25.4,30.05,WSW,248,0.0,11.4,72,0.00,,,0.00,VWS V14.01,2013-01-09 11:12:00,
2013-01-09 06:17:00,33.4,25.4,30.04,WSW,248,6.0,11.4,72,0.00,,,0.00,VWS V14.01,2013-01-09 11:17:00,
2013-01-09 06:22:00,33.4,25.4,30.04,ESE,112,6.0,11.9,72,0.00,,,0.00,VWS V14.01,2013-01-09 11:22:00,
2013-01-09 06:27:00,33.6,25.6,30.03,ENE,68,4.5,11.9,72,0.00,,,0.00,VWS V14.01,2013-01-09 11:27:00,
2013-01-09 06:32:00,33.4,25.4,30.01,South,180,8.7,11.9,72,0.00,,,0.00,VWS V14.01,2013-01-09 11:32:00,
2013-01-09 06:37:00,33.6,25.6,30.01,WSW,248,6.3,11.9,72,0.00,,,0.00,VWS V14.01,2013-01-09 11:37:00,
2013-01-09 06:42:00,33.4,25.4,30.01,SW,225,0.0,5.8,72,0.00,,,0.00,VWS V14.01,2013-01-09 11:42:00,
2013-01-09 06:47:00,33.6,25.6,30.02,South,180,2.9,8.3,72,0.00,,OVC070,0.00,VWS V14.01,2013-01-09 11:47:00,
2013-01-09 06:52:00,33.4,25.4,30.01,SW,225,0.0,9.2,72,0.00,,OVC070,0.00,VWS V14.01,2013-01-09 11:52:00,
2013-01-09 06:57:00,33.6,25.6,30.02,WSW,248,8.5,11.0,72,0.00,,OVC070,0.00,VWS V14.01,2013-01-09 11:57:00,
2013-01-09 07:02:00,33.6,25.6,30.02,SSW,202,5.1,8.3,72,0.00,,OVC070,0.00,VWS V14.01,2013-01-09 12:02:00,
2013-01-09 07:08:00,33.4,25.4,30.01,WSW,248,0.0,9.0,72,0.00,,OVC070,0.00,VWS V14.01,2013-01-09 12:08:00,
2013-01-09 07:12:00,33.6,25.6,30.01,SSW,202,4.0,9.8,72,0.00,,OVC070,0.00,VWS V14.01,2013-01-09 12:12:00,
2013-01-09 07:18:00,33.6,25.6,30.01,WSW,248,10.7,10.7,72,0.00,,OVC070,0.00,VWS V14.01,2013-01-09 12:18:00,
2013-01-09 07:23:00,33.4,25.4,30.01,SW,225,0.0,3.6,72,0.00,,OVC070,0.00,VWS V14.01,2013-01-09 12:23:00,
2013-01-09 07:28:00,33.4,25.4,30.01,SW,225,4.7,8.3,72,0.00,,OVC070,0.00,VWS V14.01,2013-01-09 12:28:00,
2013-01-09 07:33:00,33.4,25.4,30.02,SSW,202,0.0,8.3,72,0.00,,-RA,0.00,VWS V14.01,2013-01-09 12:33:00,
2013-01-09 07:38:00,33.4,25.4,30.01,South,180,0.0,8.3,72,0.00,,-RA,0.00,VWS V14.01,2013-01-09 12:38:00,
2013-01-09 07:43:00,33.3,25.2,30.01,WSW,248,0.0,6.9,72,0.00,,-RA,0.00,VWS V14.01,2013-01-09 12:43:00,
2013-01-09 07:48:00,33.3,25.2,30.01,SSE,158,3.1,11.2,72,0.00,,-RA,0.00,VWS V14.01,2013-01-09 12:48:00,
2013-01-09 07:53:00,33.3,25.2,30.01,SW,225,8.1,11.2,72,0.00,,-RA,0.00,VWS V14.01,2013-01-09 12:53:00,
2013-01-09 07:58:00,33.3,25.2,30.02,West,270,4.0,11.2,72,0.00,,-RA,0.00,VWS V14.01,2013-01-09 12:58:00,
2013-01-09 08:03:00,33.3,25.2,30.02,WSW,248,5.8,6.7,72,0.00,,-RA,0.00,VWS V14.01,2013-01-09 13:03:00,
2013-01-09 08:08:00,33.3,25.2,30.03,SW,225,11.0,11.0,72,0.00,,-RA,0.00,VWS V14.01,2013-01-09 13:08:00,
2013-01-09 08:13:00,33.3,25.2,30.03,South,180,0.0,11.4,72,0.00,,-RA,0.00,VWS V14.01,2013-01-09 13:13:00,
2013-01-09 08:18:00,33.3,25.2,30.03,SSW,202,0.0,11.4,72,0.00,,-RA,0.00,VWS V14.01,2013-01-09 13:18:00,
2013-01-09 08:23:00,33.3,25.2,30.03,West,270,0.0,11.2,72,0.00,,-RA,0.00,VWS V14.01,2013-01-09 13:23:00,
2013-01-09 08:28:00,33.3,25.2,30.02,WSW,248,0.0,12.3,72,0.00,,-RA,0.00,VWS V14.01,2013-01-09 13:28:00,
2013-01-09 08:33:00,33.3,25.2,30.03,WSW,248,6.5,12.3,72,0.00,,OVC120,0.00,VWS V14.01,2013-01-09 13:33:00,
2013-01-09 08:38:00,33.3,25.2,30.03,WSW,248,0.0,12.3,72,0.00,,OVC120,0.00,VWS V14.01,2013-01-09 13:38:00,
2013-01-09 08:43:00,33.4,25.7,30.03,WNW,292,0.0,10.7,73,0.00,,OVC120,0.00,VWS V14.01,2013-01-09 13:43:00,
2013-01-09 08:48:00,33.4,25.7,30.03,WNW,292,4.7,13.4,73,0.00,,OVC120,0.00,VWS V14.01,2013-01-09 13:48:00,
2013-01-09 08:53:00,33.4,25.7,30.03,West,270,5.6,13.4,73,0.00,,OVC120,0.00,VWS V14.01,2013-01-09 13:53:00,
2013-01-09 08:59:00,33.8,26.1,30.03,SW,225,3.8,13.4,73,0.00,,OVC120,0.00,VWS V14.01,2013-01-09 13:59:00,
2013-01-09 09:04:00,34.0,26.2,30.03,West,270,0.0,9.0,73,0.00,,OVC120,0.00,VWS V14.01,2013-01-09 14:04:00,
2013-01-09 09:09:00,34.2,26.8,30.03,WSW,248,5.4,12.1,74,0.00,,OVC120,0.00,VWS V14.01,2013-01-09 14:09:00,
2013-01-09 09:14:00,34.3,26.9,30.03,SW,225,3.6,12.1,74,0.00,,OVC120,0.00,VWS V14.01,2013-01-09 14:14:00,
2013-01-09 09:19:00,34.5,27.1,30.03,NE,45,0.0,12.1,74,0.00,,OVC120,0.00,VWS V14.01,2013-01-09 14:19:00,
2013-01-09 09:24:00,34.7,27.3,30.04,WSW,248,9.0,9.4,74,0.00,,OVC120,0.00,VWS V14.01,2013-01-09 14:24:00,
2013-01-09 09:29:00,35.1,27.6,30.04,SW,225,0.0,13.6,74,0.00,,OVC120,0.00,VWS V14.01,2013-01-09 14:29:00,
2013-01-09 09:34:00,35.6,28.1,30.04,WSW,248,10.7,13.6,74,0.00,,FEW120,0.00,VWS V14.01,2013-01-09 14:34:00,
2013-01-09 09:39:00,35.8,28.3,30.04,WSW,248,4.9,13.6,74,0.00,,FEW120,0.00,VWS V14.01,2013-01-09 14:39:00,
2013-01-09 09:44:00,36.1,29.0,30.03,South,180,0.0,15.0,75,0.00,,FEW120,0.00,VWS V14.01,2013-01-09 14:44:00,
2013-01-09 09:49:00,36.5,29.3,30.04,WSW,248,2.5,15.0,75,0.00,,FEW120,0.00,VWS V14.01,2013-01-09 14:49:00,
2013-01-09 09:54:00,36.9,29.7,30.04,NW,315,0.0,18.1,75,0.00,,FEW120,0.00,VWS V14.01,2013-01-09 14:54:00,
2013-01-09 09:59:00,37.6,30.4,30.05,WSW,248,4.3,18.1,75,0.00,,FEW120,0.00,VWS V14.01,2013-01-09 14:59:00,
2013-01-09 10:04:00,37.9,30.4,30.04,WSW,248,0.7,25.1,74,0.00,,FEW120,0.00,VWS V14.01,2013-01-09 15:04:00,
2013-01-09 10:09:00,38.3,30.8,30.04,WNW,292,1.8,25.1,74,0.00,,FEW120,0.00,VWS V14.01,2013-01-09 15:09:00,
2013-01-09 10:14:00,38.7,30.8,30.05,WSW,248,8.3,25.1,73,0.00,,FEW120,0.00,VWS V14.01,2013-01-09 15:14:00,
2013-01-09 10:19:00,38.7,30.8,30.05,WSW,248,9.4,25.1,73,0.00,,FEW120,0.00,VWS V14.01,2013-01-09 15:19:00,
2013-01-09 10:24:00,38.8,30.9,30.05,SW,225,5.1,19.9,73,0.00,,FEW120,0.00,VWS V14.01,2013-01-09 15:24:00,
2013-01-09 10:29:00,39.4,31.1,30.05,WSW,248,8.7,19.9,72,0.00,,FEW120,0.00,VWS V14.01,2013-01-09 15:29:00,
2013-01-09 10:35:00,39.4,31.1,30.06,WSW,248,9.2,19.9,72,0.00,,FEW015,0.00,VWS V14.01,2013-01-09 15:35:00,
2013-01-09 10:40:00,39.6,31.0,30.06,West,270,6.9,19.9,71,0.00,,FEW015,0.00,VWS V14.01,2013-01-09 15:40:00,
2013-01-09 10:45:00,39.7,31.1,30.05,SSW,202,0.0,17.2,71,0.00,,FEW015,0.00,VWS V14.01,2013-01-09 15:45:00,
2013-01-09 10:50:00,39.9,31.3,30.06,SSW,202,0.0,20.1,71,0.00,,FEW015,0.00,VWS V14.01,2013-01-09 15:50:00,
2013-01-09 10:55:00,40.3,31.3,30.06,WSW,248,9.0,20.1,70,0.00,,FEW015,0.00,VWS V14.01,2013-01-09 15:55:00,
2013-01-09 11:00:00,40.5,31.1,30.06,NW,315,4.7,20.1,69,0.00,,FEW015,0.00,VWS V14.01,2013-01-09 16:00:00,
2013-01-09 11:05:00,40.6,30.9,30.06,WSW,248,8.7,18.1,68,0.00,,FEW015,0.00,VWS V14.01,2013-01-09 16:05:00,
2013-01-09 11:10:00,40.8,30.7,30.06,WSW,248,11.0,18.1,67,0.00,,FEW015,0.00,VWS V14.01,2013-01-09 16:10:00,
2013-01-09 11:15:00,41.2,30.7,30.06,WSW,248,9.0,18.1,66,0.00,,FEW015,0.00,VWS V14.01,2013-01-09 16:15:00,
2013-01-09 11:20:00,41.4,30.9,30.06,WSW,248,5.6,20.4,66,0.00,,FEW015,0.00,VWS V14.01,2013-01-09 16:20:00,
2013-01-09 11:25:00,41.5,30.7,30.06,West,270,4.9,14.1,65,0.00,,FEW015,0.00,VWS V14.01,2013-01-09 16:25:00,
2013-01-09 11:30:00,41.5,30.3,30.06,WSW,248,18.3,22.4,64,0.00,,FEW015,0.00,VWS V14.01,2013-01-09 16:30:00,
2013-01-09 11:35:00,41.5,29.9,30.07,WSW,248,7.4,22.4,63,0.00,,FEW024,0.00,VWS V14.01,2013-01-09 16:35:00,
2013-01-09 11:40:00,41.7,29.7,30.07,WNW,292,10.3,22.4,62,0.00,,FEW024,0.00,VWS V14.01,2013-01-09 16:40:00,
2013-01-09 11:45:00,41.7,29.7,30.07,South,180,6.0,13.2,62,0.00,,FEW024,0.00,VWS V14.01,2013-01-09 16:45:00,
2013-01-09 11:50:00,41.7,29.3,30.07,West,270,6.3,13.9,61,0.00,,FEW024,0.00,VWS V14.01,2013-01-09 16:50:00,
2013-01-09 11:55:00,41.9,29.0,30.07,WSW,248,6.0,14.5,60,0.00,,FEW024,0.00,VWS V14.01,2013-01-09 16:55:00,
2013-01-09 12:00:00,41.9,29.0,30.06,WSW,248,9.0,11.2,60,0.00,,FEW024,0.00,VWS V14.01,2013-01-09 17:00:00,
2013-01-09 12:05:00,42.1,28.8,30.06,WNW,292,0.2,16.6,59,0.00,,FEW024,0.00,VWS V14.01,2013-01-09 17:05:00,
2013-01-09 12:11:00,42.3,29.0,30.06,WNW,292,5.6,16.6,59,0.00,,FEW024,0.00,VWS V14.01,2013-01-09 17:11:00,
2013-01-09 12:16:00,42.3,28.5,30.06,WSW,248,6.0,20.1,58,0.00,,FEW024,0.00,VWS V14.01,2013-01-09 17:16:00,
2013-01-09 12:21:00,42.4,28.3,30.06,WNW,292,12.8,12.8,57,0.00,,FEW024,0.00,VWS V14.01,2013-01-09 17:21:00,
2013-01-09 12:26:00,42.4,27.9,30.06,West,270,6.9,16.1,56,0.00,,FEW024,0.00,VWS V14.01,2013-01-09 17:26:00,
2013-01-09 12:31:00,42.6,28.0,30.06,WSW,248,4.9,20.1,56,0.00,,FEW024,0.00,VWS V14.01,2013-01-09 17:31:00,
2013-01-09 12:36:00,42.4,27.4,30.06,WNW,292,23.5,23.5,55,0.00,,FEW120,0.00,VWS V14.01,2013-01-09 17:36:00,
2013-01-09 12:41:00,42.8,27.8,30.05,WSW,248,6.5,11.2,55,0.00,,FEW120,0.00,VWS V14.01,2013-01-09 17:41:00,
2013-01-09 12:46:00,42.8,27.8,30.05,NNW,338,2.9,16.3,55,0.00,,FEW120,0.00,VWS V14.01,2013-01-09 17:46:00,
2013-01-09 12:51:00,43.0,27.9,30.05,WNW,292,4.7,16.3,55,0.00,,FEW120,0.00,VWS V14.01,2013-01-09 17:51:00,
2013-01-09 12:56:00,43.0,27.9,30.05,WNW,292,14.1,16.3,55,0.00,,FEW120,0.00,VWS V14.01,2013-01-09 17:56:00,
2013-01-09 13:01:00,43.0,27.5,30.05,SW,225,10.7,13.2,54,0.00,,FEW120,0.00,VWS V14.01,2013-01-09 18:01:00,
2013-01-09 13:06:00,43.0,27.5,30.05,SW,225,11.6,14.5,54,0.00,,FEW120,0.00,VWS V14.01,2013-01-09 18:06:00,
2013-01-09 13:11:00,43.2,27.7,30.06,WSW,248,13.2,25.3,54,0.00,,FEW120,0.00,VWS V14.01,2013-01-09 18:11:00,
2013-01-09 13:16:00,43.2,27.2,30.06,SW,225,9.8,25.3,53,0.00,,FEW120,0.00,VWS V14.01,2013-01-09 18:16:00,
2013-01-09 13:21:00,43.2,26.7,30.05,WNW,292,12.1,12.1,52,0.00,,FEW120,0.00,VWS V14.01,2013-01-09 18:21:00,
2013-01-09 13:26:00,43.3,26.4,30.05,WSW,248,8.1,17.7,51,0.00,,FEW120,0.00,VWS V14.01,2013-01-09 18:26:00,
2013-01-09 13:31:00,43.5,26.6,30.06,SW,225,7.2,17.7,51,0.00,,FEW100,0.00,VWS V14.01,2013-01-09 18:31:00,
2013-01-09 13:36:00,43.7,26.3,30.05,WSW,248,11.2,17.7,50,0.00,,FEW100,0.00,VWS V14.01,2013-01-09 18:36:00,
2013-01-09 13:41:00,43.7,26.3,30.06,WSW,248,8.5,8.5,50,0.00,,FEW100,0.00,VWS V14.01,2013-01-09 18:41:00,
2013-01-09 13:42:00,43.7,26.3,30.06,South,180,5.4,8.5,50,0.00,,FEW100,0.00,VWS V14.01,2013-01-09 18:42:00,
2013-01-09 13:43:00,43.7,26.3,30.06,West,270,17.0,17.0,50,0.00,,FEW100,0.00,VWS V14.01,2013-01-09 18:43:00,
2013-01-09 13:44:00,43.7,25.8,30.06,West,270,5.1,17.0,49,0.00,,FEW100,0.00,VWS V14.01,2013-01-09 18:44:00,
2013-01-09 13:45:00,43.7,25.8,30.06,WNW,292,2.0,17.0,49,0.00,,FEW100,0.00,VWS V14.01,2013-01-09 18:45:00,
2013-01-09 13:48:00,43.9,26.0,30.06,WSW,248,4.5,17.0,49,0.00,,FEW100,0.00,VWS V14.01,2013-01-09 18:48:00,
2013-01-09 13:49:00,43.9,26.0,30.06,West,270,6.3,17.0,49,0.00,,FEW100,0.00,VWS V14.01,2013-01-09 18:49:00,
2013-01-09 13:50:00,43.9,26.0,30.06,WSW,248,4.7,20.1,49,0.00,,FEW100,0.00,VWS V14.01,2013-01-09 18:50:00,
2013-01-09 13:56:00,44.1,25.6,30.06,WNW,292,3.1,20.1,48,0.00,,FEW100,0.00,VWS V14.01,2013-01-09 18:56:00,
2013-01-09 14:01:00,44.1,25.1,30.06,WNW,292,9.4,19.5,47,0.00,,FEW100,0.00,VWS V14.01,2013-01-09 19:01:00,
2013-01-09 14:06:00,44.2,24.8,30.07,SW,225,17.9,21.7,46,0.00,,FEW100,0.00,VWS V14.01,2013-01-09 19:06:00,
2013-01-09 14:11:00,44.4,24.4,30.07,WNW,292,4.5,21.7,45,0.00,,FEW100,0.00,VWS V14.01,2013-01-09 19:11:00,
2013-01-09 14:16:00,44.6,24.6,30.07,WSW,248,18.3,21.7,45,0.00,,FEW100,0.00,VWS V14.01,2013-01-09 19:16:00,
2013-01-09 14:21:00,44.8,24.2,30.07,NW,315,0.0,8.7,44,0.00,,FEW100,0.00,VWS V14.01,2013-01-09 19:21:00,
2013-01-09 14:26:00,44.8,24.2,30.08,South,180,9.2,16.6,44,0.00,,FEW100,0.00,VWS V14.01,2013-01-09 19:26:00,
2013-01-09 14:31:00,44.8,24.2,30.08,SW,225,4.7,16.6,44,0.00,,FEW100,0.00,VWS V14.01,2013-01-09 19:31:00,
2013-01-09 14:36:00,44.8,23.7,30.08,SW,225,6.3,20.8,43,0.00,,FEW100,0.00,VWS V14.01,2013-01-09 19:36:00,
2013-01-09 14:41:00,44.8,23.7,30.07,WNW,292,11.2,27.1,43,0.00,,FEW100,0.00,VWS V14.01,2013-01-09 19:41:00,
2013-01-09 14:46:00,44.8,23.1,30.08,WSW,248,7.6,27.1,42,0.00,,FEW100,0.00,VWS V14.01,2013-01-09 19:46:00,
2013-01-09 14:51:00,45.0,23.3,30.09,WNW,292,9.6,27.1,42,0.00,,FEW100,0.00,VWS V14.01,2013-01-09 19:51:00,
2013-01-09 14:56:00,45.0,22.7,30.09,WNW,292,10.7,27.1,41,0.00,,FEW100,0.00,VWS V14.01,2013-01-09 19:56:00,
2013-01-09 15:01:00,45.0,22.7,30.10,SSW,202,14.3,15.0,41,0.00,,FEW100,0.00,VWS V14.01,2013-01-09 20:01:00,
2013-01-09 15:06:00,45.0,22.7,30.10,West,270,4.5,18.3,41,0.00,,FEW100,0.00,VWS V14.01,2013-01-09 20:06:00,
2013-01-09 15:11:00,45.0,22.7,30.10,WNW,292,6.3,23.7,41,0.00,,FEW100,0.00,VWS V14.01,2013-01-09 20:11:00,
2013-01-09 15:17:00,45.0,22.1,30.11,WNW,292,13.4,23.7,40,0.00,,FEW100,0.00,VWS V14.01,2013-01-09 20:17:00,
2013-01-09 15:22:00,45.1,22.3,30.11,WNW,292,14.1,18.1,40,0.00,,FEW100,0.00,VWS V14.01,2013-01-09 20:22:00,
2013-01-09 15:27:00,45.0,22.1,30.11,WNW,292,11.0,23.0,40,0.00,,FEW100,0.00,VWS V14.01,2013-01-09 20:27:00,
2013-01-09 15:32:00,45.0,22.1,30.11,WSW,248,4.7,23.0,40,0.00,,FEW220,0.00,VWS V14.01,2013-01-09 20:32:00,
2013-01-09 15:37:00,45.0,22.1,30.11,NW,315,21.3,23.0,40,0.00,,FEW220,0.00,VWS V14.01,2013-01-09 20:37:00,
2013-01-09 15:42:00,45.0,21.5,30.12,SW,225,8.7,20.1,39,0.00,,FEW220,0.00,VWS V14.01,2013-01-09 20:42:00,
2013-01-09 15:47:00,45.0,21.5,30.11,WNW,292,18.1,24.2,39,0.00,,FEW220,0.00,VWS V14.01,2013-01-09 20:47:00,
2013-01-09 15:52:00,45.0,21.5,30.11,WSW,248,17.0,27.1,39,0.00,,FEW220,0.00,VWS V14.01,2013-01-09 20:52:00,
2013-01-09 15:57:00,45.0,20.9,30.11,WNW,292,12.3,27.1,38,0.00,,FEW220,0.00,VWS V14.01,2013-01-09 20:57:00,
2013-01-09 16:02:00,45.0,20.9,30.11,WNW,292,7.6,22.2,38,0.00,,FEW220,0.00,VWS V14.01,2013-01-09 21:02:00,
2013-01-09 16:07:00,45.0,20.3,30.12,WSW,248,10.7,22.2,37,0.00,,FEW220,0.00,VWS V14.01,2013-01-09 21:07:00,
2013-01-09 16:12:00,45.0,19.6,30.12,West,270,0.0,22.2,36,0.00,,FEW220,0.00,VWS V14.01,2013-01-09 21:12:00,
2013-01-09 16:17:00,44.8,20.1,30.13,WSW,248,4.7,22.2,37,0.00,,FEW220,0.00,VWS V14.01,2013-01-09 21:17:00,
2013-01-09 16:22:00,44.8,20.1,30.13,WSW,248,6.9,13.6,37,0.00,,FEW220,0.00,VWS V14.01,2013-01-09 21:22:00,
2013-01-09 16:27:00,44.8,19.5,30.14,WSW,248,7.2,15.4,36,0.00,,FEW220,0.00,VWS V14.01,2013-01-09 21:27:00,
2013-01-09 16:32:00,44.8,19.5,30.14,WNW,292,9.6,16.1,36,0.00,,FEW240,0.00,VWS V14.01,2013-01-09 21:32:00,
2013-01-09 16:38:00,44.6,19.3,30.14,SW,225,8.5,28.4,36,0.00,,FEW240,0.00,VWS V14.01,2013-01-09 21:38:00,
2013-01-09 16:43:00,44.2,18.3,30.14,WNW,292,9.8,13.9,35,0.00,,FEW240,0.00,VWS V14.01,2013-01-09 21:43:00,
2013-01-09 16:48:00,44.2,18.3,30.15,WNW,292,7.4,15.7,35,0.00,,FEW240,0.00,VWS V14.01,2013-01-09 21:48:00,
2013-01-09 16:53:00,44.1,18.2,30.15,WNW,292,4.5,16.6,35,0.00,,FEW240,0.00,VWS V14.01,2013-01-09 21:53:00,
2013-01-09 16:58:00,43.9,18.0,30.16,WNW,292,14.1,23.5,35,0.00,,FEW240,0.00,VWS V14.01,2013-01-09 21:58:00,
2013-01-09 17:03:00,43.5,17.7,30.16,West,270,2.7,14.3,35,0.00,,FEW240,0.00,VWS V14.01,2013-01-09 22:03:00,
2013-01-09 17:08:00,43.5,17.7,30.16,WNW,292,6.5,16.6,35,0.00,,FEW240,0.00,VWS V14.01,2013-01-09 22:08:00,
2013-01-09 17:13:00,43.3,16.9,30.16,WNW,292,6.9,16.6,34,0.00,,FEW240,0.00,VWS V14.01,2013-01-09 22:13:00,
2013-01-09 17:18:00,43.2,16.7,30.16,WSW,248,6.7,19.5,34,0.00,,FEW240,0.00,VWS V14.01,2013-01-09 22:18:00,
2013-01-09 17:23:00,43.0,16.5,30.16,West,270,10.1,17.9,34,0.00,,FEW240,0.00,VWS V14.01,2013-01-09 22:23:00,
2013-01-09 17:28:00,43.0,16.5,30.16,WNW,292,10.5,22.6,34,0.00,,FEW240,0.00,VWS V14.01,2013-01-09 22:28:00,
2013-01-09 17:33:00,42.8,16.4,30.17,West,270,9.4,22.6,34,0.00,,SCT240,0.00,VWS V14.01,2013-01-09 22:33:00,
2013-01-09 17:38:00,42.6,16.2,30.17,West,270,3.4,22.6,34,0.00,,SCT240,0.00,VWS V14.01,2013-01-09 22:38:00,
2013-01-09 17:43:00,42.4,16.1,30.17,WSW,248,3.8,15.0,34,0.00,,SCT240,0.00,VWS V14.01,2013-01-09 22:43:00,
2013-01-09 17:48:00,42.4,15.4,30.18,SW,225,6.3,15.4,33,0.00,,SCT240,0.00,VWS V14.01,2013-01-09 22:48:00,
2013-01-09 17:54:00,42.3,15.2,30.19,West,270,7.8,15.4,33,0.00,,SCT240,0.00,VWS V14.01,2013-01-09 22:54:00,
2013-01-09 17:59:00,42.1,16.4,30.19,West,270,7.6,15.4,35,0.00,,SCT240,0.00,VWS V14.01,2013-01-09 22:59:00,
2013-01-09 18:04:00,41.9,16.3,30.20,NW,315,6.9,15.9,35,0.00,,SCT240,0.00,VWS V14.01,2013-01-09 23:04:00,
2013-01-09 18:09:00,41.7,16.8,30.19,WNW,292,6.9,21.5,36,0.00,,SCT240,0.00,VWS V14.01,2013-01-09 23:09:00,
2013-01-09 18:14:00,41.5,15.9,30.20,SSW,202,13.6,21.5,35,0.00,,SCT240,0.00,VWS V14.01,2013-01-09 23:14:00,
2013-01-09 18:19:00,41.4,16.4,30.21,SW,225,3.4,21.5,36,0.00,,SCT240,0.00,VWS V14.01,2013-01-09 23:19:00,
2013-01-09 18:24:00,41.4,16.4,30.21,WNW,292,5.1,15.4,36,0.00,,SCT240,0.00,VWS V14.01,2013-01-09 23:24:00,
2013-01-09 18:29:00,41.2,16.9,30.21,West,270,6.5,17.7,37,0.00,,SCT240,0.00,VWS V14.01,2013-01-09 23:29:00,
2013-01-09 18:34:00,41.2,16.9,30.23,WSW,248,5.6,20.8,37,0.00,,FEW220,0.00,VWS V14.01,2013-01-09 23:34:00,
2013-01-09 18:39:00,41.0,16.7,30.23,WNW,292,2.5,21.7,37,0.00,,FEW220,0.00,VWS V14.01,2013-01-09 23:39:00,
2013-01-09 18:44:00,40.8,17.2,30.24,WNW,292,10.7,22.2,38,0.00,,FEW220,0.00,VWS V14.01,2013-01-09 23:44:00,
2013-01-09 18:49:00,40.6,17.0,30.24,WNW,292,10.3,22.2,38,0.00,,FEW220,0.00,VWS V14.01,2013-01-09 23:49:00,
2013-01-09 18:54:00,40.6,18.2,30.25,WNW,292,9.0,22.8,40,0.00,,FEW220,0.00,VWS V14.01,2013-01-09 23:54:00,
2013-01-09 18:59:00,40.6,18.2,30.25,WSW,248,7.6,22.8,40,0.00,,FEW220,0.00,VWS V14.01,2013-01-09 23:59:00,
2013-01-09 19:04:00,40.5,18.1,30.26,NW,315,14.1,14.1,40,0.00,,FEW220,0.00,VWS V14.01,2013-01-10 00:04:00,
2013-01-09 19:09:00,40.3,18.5,30.26,NNW,338,12.1,21.3,41,0.00,,FEW220,0.00,VWS V14.01,2013-01-10 00:09:00,
2013-01-09 19:15:00,40.1,18.3,30.26,NW,315,10.5,21.3,41,0.00,,FEW220,0.00,VWS V14.01,2013-01-10 00:15:00,
2013-01-09 19:20:00,40.1,18.3,30.27,NW,315,7.2,21.3,41,0.00,,FEW220,0.00,VWS V14.01,2013-01-10 00:20:00,
2013-01-09 19:25:00,39.9,18.7,30.27,WSW,248,8.3,12.3,42,0.00,,FEW220,0.00,VWS V14.01,2013-01-10 00:25:00,
2013-01-09 19:30:00,39.9,18.7,30.28,West,270,6.0,17.9,42,0.00,,FEW220,0.00,VWS V14.01,2013-01-10 00:30:00,
2013-01-09 19:35:00,39.7,19.1,30.28,NW,315,7.8,17.9,43,0.00,,FEW220,0.00,VWS V14.01,2013-01-10 00:35:00,
2013-01-09 19:40:00,39.6,18.9,30.29,WNW,292,8.7,19.5,43,0.00,,FEW220,0.00,VWS V14.01,2013-01-10 00:40:00,
2013-01-09 19:45:00,39.6,18.9,30.29,NW,315,5.4,18.8,43,0.00,,FEW220,0.00,VWS V14.01,2013-01-10 00:45:00,
2013-01-09 19:50:00,39.4,18.8,30.30,NW,315,4.7,19.2,43,0.00,,FEW220,0.00,VWS V14.01,2013-01-10 00:50:00,
2013-01-09 19:55:00,39.4,19.3,30.30,West,270,11.4,19.2,44,0.00,,FEW220,0.00,VWS V14.01,2013-01-10 00:55:00,
2013-01-09 20:00:00,39.2,19.1,30.30,WNW,292,3.1,19.2,44,0.00,,FEW220,0.00,VWS V14.01,2013-01-10 01:00:00,
2013-01-09 20:05:00,39.2,19.1,30.30,NW,315,5.4,15.0,44,0.00,,FEW220,0.00,VWS V14.01,2013-01-10 01:05:00,
2013-01-09 20:10:00,38.8,19.3,30.30,WNW,292,14.3,21.9,45,0.00,,FEW220,0.00,VWS V14.01,2013-01-10 01:10:00,
2013-01-09 20:15:00,38.8,19.3,30.31,West,270,6.0,21.9,45,0.00,,FEW220,0.00,VWS V14.01,2013-01-10 01:15:00,
2013-01-09 20:20:00,38.7,19.2,30.31,WNW,292,6.0,21.9,45,0.00,,FEW220,0.00,VWS V14.01,2013-01-10 01:20:00,
2013-01-09 20:25:00,38.7,19.2,30.31,SW,225,2.7,17.0,45,0.00,,FEW220,0.00,VWS V14.01,2013-01-10 01:25:00,
2013-01-09 20:30:00,38.5,19.0,30.31,West,270,5.4,17.0,45,0.00,,FEW220,0.00,VWS V14.01,2013-01-10 01:30:00,
2013-01-09 20:35:00,38.3,18.8,30.32,WNW,292,2.7,17.0,45,0.00,,FEW220,0.00,VWS V14.01,2013-01-10 01:35:00,
2013-01-09 20:40:00,38.3,19.4,30.33,NNW,338,9.8,17.0,46,0.00,,FEW220,0.00,VWS V14.01,2013-01-10 01:40:00,
2013-01-09 20:45:00,38.3,19.4,30.32,NW,315,3.8,18.8,46,0.00,,FEW220,0.00,VWS V14.01,2013-01-10 01:45:00,
2013-01-09 20:50:00,38.1,19.2,30.33,NW,315,7.2,18.8,46,0.00,,FEW220,0.00,VWS V14.01,2013-01-10 01:50:00,
2013-01-09 20:55:00,38.1,19.2,30.32,NW,315,9.2,18.8,46,0.00,,FEW220,0.00,VWS V14.01,2013-01-10 01:55:00,
2013-01-09 21:00:00,37.9,19.0,30.33,WSW,248,0.9,18.8,46,0.00,,FEW220,0.00,VWS V14.01,2013-01-10 02:00:00,
2013-01-09 21:05:00,37.8,19.4,30.33,NNW,338,10.3,12.3,47,0.00,,FEW220,0.00,VWS V14.01,2013-01-10 02:05:00,
2013-01-09 21:10:00,37.8,19.4,30.33,NNW,338,6.3,15.2,47,0.00,,FEW220,0.00,VWS V14.01,2013-01-10 02:10:00,
2013-01-09 21:15:00,37.6,19.2,30.33,NNW,338,0.0,15.2,47,0.00,,FEW220,0.00,VWS V14.01,2013-01-10 02:15:00,
2013-01-09 21:20:00,37.6,19.2,30.33,NW,315,9.8,15.2,47,0.00,,FEW220,0.00,VWS V14.01,2013-01-10 02:20:00,
2013-01-09 21:25:00,37.6,19.2,30.34,West,270,0.0,15.0,47,0.00,,FEW220,0.00,VWS V14.01,2013-01-10 02:25:00,
2013-01-09 21:30:00,37.4,19.5,30.34,NNW,338,5.8,15.0,48,0.00,,FEW220,0.00,VWS V14.01,2013-01-10 02:30:00,
2013-01-09 21:35:00,37.4,19.5,30.34,NNW,338,3.4,15.0,48,0.00,,FEW220,0.00,VWS V14.01,2013-01-10 02:35:00,
2013-01-09 21:40:00,37.2,19.4,30.34,WNW,292,0.0,0.0,48,0.00,,FEW220,0.00,VWS V14.01,2013-01-10 02:40:00,
2013-01-09 21:45:00,37.2,19.4,30.34,NNW,338,3.6,9.8,48,0.00,,FEW220,0.00,VWS V14.01,2013-01-10 02:45:00,
2013-01-09 21:51:00,37.0,19.2,30.34,NW,315,3.6,11.6,48,0.00,,FEW220,0.00,VWS V14.01,2013-01-10 02:51:00,
2013-01-09 21:56:00,36.9,19.5,30.35,NNW,338,7.4,11.6,49,0.00,,FEW220,0.00,VWS V14.01,2013-01-10 02:56:00,
2013-01-09 22:01:00,36.9,19.5,30.35,WNW,292,0.0,0.0,49,0.00,,FEW220,0.00,VWS V14.01,2013-01-10 03:01:00,
2013-01-09 22:06:00,36.7,19.3,30.36,NW,315,4.0,13.0,49,0.00,,FEW220,0.00,VWS V14.01,2013-01-10 03:06:00,
2013-01-09 22:11:00,36.7,19.3,30.36,NW,315,0.0,13.0,49,0.00,,FEW220,0.00,VWS V14.01,2013-01-10 03:11:00,
2013-01-09 22:16:00,36.5,19.2,30.37,WNW,292,0.0,13.0,49,0.00,,FEW220,0.00,VWS V14.01,2013-01-10 03:16:00,
2013-01-09 22:21:00,36.5,19.6,30.37,WNW,292,4.7,4.7,50,0.00,,FEW220,0.00,VWS V14.01,2013-01-10 03:21:00,
2013-01-09 22:26:00,36.5,19.6,30.37,WNW,292,0.0,9.2,50,0.00,,FEW220,0.00,VWS V14.01,2013-01-10 03:26:00,
2013-01-09 22:31:00,36.3,19.5,30.37,WSW,248,2.5,9.2,50,0.00,,FEW220,0.00,VWS V14.01,2013-01-10 03:31:00,
2013-01-09 22:36:00,36.3,19.5,30.37,NNW,338,3.4,9.2,50,0.00,,FEW220,0.00,VWS V14.01,2013-01-10 03:36:00,
2013-01-09 22:41:00,36.1,19.3,30.38,WNW,292,0.0,2.5,50,0.00,,FEW220,0.00,VWS V14.01,2013-01-10 03:41:00,
2013-01-09 22:46:00,36.0,19.1,30.38,NW,315,0.0,6.7,50,0.00,,FEW220,0.00,VWS V14.01,2013-01-10 03:46:00,
2013-01-09 22:51:00,36.0,19.6,30.38,WNW,292,0.0,6.7,51,0.00,,FEW220,0.00,VWS V14.01,2013-01-10 03:51:00,
2013-01-09 22:56:00,35.8,19.4,30.38,West,270,0.0,6.7,51,0.00,,FEW220,0.00,VWS V14.01,2013-01-10 03:56:00,
2013-01-09 23:01:00,35.8,19.4,30.38,WNW,292,0.0,0.0,51,0.00,,FEW220,0.00,VWS V14.01,2013-01-10 04:01:00,
2013-01-09 23:07:00,35.8,19.4,30.39,West,270,0.0,1.8,51,0.00,,FEW220,0.00,VWS V14.01,2013-01-10 04:07:00,
2013-01-09 23:12:00,35.4,19.1,30.39,WNW,292,0.0,3.8,51,0.00,,FEW220,0.00,VWS V14.01,2013-01-10 04:12:00,
2013-01-09 23:17:00,35.2,18.9,30.39,WNW,292,0.0,3.8,51,0.00,,FEW220,0.00,VWS V14.01,2013-01-10 04:17:00,
2013-01-09 23:22:00,35.1,18.8,30.40,WNW,292,0.0,0.0,51,0.00,,FEW220,0.00,VWS V14.01,2013-01-10 04:22:00,
2013-01-09 23:27:00,34.9,19.1,30.39,WNW,292,0.0,0.0,52,0.00,,FEW220,0.00,VWS V14.01,2013-01-10 04:27:00,
2013-01-09 23:32:00,34.5,18.7,30.39,WNW,292,0.0,0.0,52,0.00,,FEW220,0.00,VWS V14.01,2013-01-10 04:32:00,
2013-01-09 23:37:00,34.2,18.8,30.39,WNW,292,0.0,0.0,53,0.00,,FEW220,0.00,VWS V14.01,2013-01-10 04:37:00,
2013-01-09 23:42:00,33.8,18.5,30.39,WNW,292,0.0,0.0,53,0.00,,FEW220,0.00,VWS V14.01,2013-01-10 04:42:00,
2013-01-09 23:47:00,33.4,18.2,30.40,WNW,292,0.0,0.0,53,0.00,,FEW220,0.00,VWS V14.01,2013-01-10 04:47:00,
2013-01-09 23:52:00,33.3,18.0,30.40,WNW,292,0.0,0.0,53,0.00,,FEW220,0.00,VWS V14.01,2013-01-10 04:52:00,
2013-01-09 23:57:00,32.9,18.1,30.40,WNW,292,0.0,0.0,54,0.00,,FEW220,0.00,VWS V14.01,2013-01-10 04:57:00,